Time;durP1;ratioP1;P1;durP2;ratioP2;P2;SDS_P1;SDS_P2;PMS_P1;PMS_P2;Temp;Humidity;BMP_temperature;BMP_pressure;BME280_temperature;BME280_humidity;BME280_pressure;Samples;Min_cycle;Max_cycle;Signal;HPM_P1;HPM_P2
2023/07/14 00:01:31;;;;;;;8.07;7.38;;;;;;;;;;5114806;28;20048;-80
2023/07/14 00:03:58;;;;;;;10.80;9.00;;;;;;;;;;5097106;28;20051;-80
2023/07/14 00:06:24;;;;;;;7.95;7.30;;;;;;;;;;5113440;28;20050;-80
2023/07/14 00:08:50;;;;;;;8.85;8.15;;;;;;;;;;5080092;28;20055;-80
2023/07/14 00:11:17;;;;;;;8.35;7.60;;;;;;;;;;5114811;28;20059;-80
2023/07/14 00:13:44;;;;;;;8.75;7.68;;;;;;;;;;5113296;28;20048;-80
2023/07/14 00:16:18;;;;;;;8.38;7.55;;;;;;;;;;5113814;28;20040;-80
2023/07/14 00:18:44;;;;;;;8.02;7.30;;;;;;;;;;5113639;28;20047;-80
2023/07/14 00:21:22;;;;;;;8.00;7.43;;;;;;;;;;5113234;28;20491;-80
2023/07/14 00:23:49;;;;;;;8.35;7.63;;;;;;;;;;5113970;28;20495;-81
2023/07/14 00:26:17;;;;;;;8.15;7.43;;;;;;;;;;5113589;28;20047;-80
2023/07/14 00:28:43;;;;;;;8.52;7.72;;;;;;;;;;5112273;28;20449;-81
2023/07/14 00:31:12;;;;;;;8.68;7.82;;;;;;;;;;5112855;28;20058;-80
2023/07/14 00:33:38;;;;;;;9.05;8.23;;;;;;;;;;5113382;28;20184;-80
2023/07/14 00:36:06;;;;;;;8.45;7.70;;;;;;;;;;5096751;28;20086;-80
2023/07/14 00:38:34;;;;;;;8.82;8.02;;;;;;;;;;5113294;28;20051;-80
2023/07/14 00:41:00;;;;;;;9.18;8.35;;;;;;;;;;5113346;28;20052;-80
2023/07/14 00:43:29;;;;;;;9.32;7.88;;;;;;;;;;5113715;28;20504;-80
2023/07/14 00:45:56;;;;;;;7.78;7.28;;;;;;;;;;5096766;28;20047;-79
2023/07/14 00:48:23;;;;;;;9.70;7.85;;;;;;;;;;5114359;28;20131;-80
2023/07/14 00:50:54;;;;;;;9.43;7.88;;;;;;;;;;5113144;28;20096;-80
2023/07/14 00:53:20;;;;;;;8.82;8.02;;;;;;;;;;5095997;28;20556;-80
2023/07/14 00:55:53;;;;;;;8.98;8.05;;;;;;;;;;5113158;28;20493;-80
2023/07/14 00:58:20;;;;;;;8.88;7.60;;;;;;;;;;5113422;28;20048;-80
2023/07/14 01:01:22;;;;;;;8.75;8.00;;;;;;;;;;5095848;28;20094;-80
2023/07/14 01:03:52;;;;;;;8.75;8.00;;;;;;;;;;5060093;28;20134;-80
2023/07/14 01:06:31;;;;;;;8.07;7.28;;;;;;;;;;5113472;28;20058;-80
2023/07/14 01:09:04;;;;;;;8.68;7.65;;;;;;;;;;5112521;28;20485;-80
2023/07/14 01:11:42;;;;;;;8.02;7.32;;;;;;;;;;5095161;28;20094;-80
2023/07/14 01:14:12;;;;;;;8.40;7.15;;;;;;;;;;5112540;28;20386;-80
2023/07/14 01:16:38;;;;;;;8.10;7.30;;;;;;;;;;5112948;28;20039;-79
2023/07/14 01:19:20;;;;;;;7.45;6.97;;;;;;;;;;5112092;28;20039;-80
2023/07/14 01:21:48;;;;;;;7.68;6.90;;;;;;;;;;5095711;28;20463;-80
2023/07/14 01:24:19;;;;;;;7.90;7.25;;;;;;;;;;5112084;28;20123;-80
2023/07/14 01:26:48;;;;;;;8.82;8.13;;;;;;;;;;5112648;28;20052;-80
2023/07/14 01:29:14;;;;;;;9.18;8.23;;;;;;;;;;5111842;28;20047;-81
2023/07/14 01:31:41;;;;;;;6.90;6.30;;;;;;;;;;5112557;28;20093;-80
2023/07/14 01:34:07;;;;;;;7.40;6.75;;;;;;;;;;5095731;28;20044;-80
2023/07/14 01:36:33;;;;;;;7.63;6.93;;;;;;;;;;5112853;28;20092;-80
2023/07/14 01:39:00;;;;;;;8.00;7.20;;;;;;;;;;5095737;28;20054;-80
2023/07/14 01:41:26;;;;;;;8.00;7.30;;;;;;;;;;5112071;28;20102;-80
2023/07/14 01:43:53;;;;;;;7.82;7.22;;;;;;;;;;5113420;28;20481;-80
2023/07/14 01:46:20;;;;;;;8.13;7.25;;;;;;;;;;5112644;28;20473;-79
2023/07/14 01:49:02;;;;;;;7.22;6.53;;;;;;;;;;5095813;28;20116;-79
2023/07/14 01:51:35;;;;;;;7.25;6.65;;;;;;;;;;5113145;28;20052;-80
2023/07/14 01:54:16;;;;;;;7.75;7.10;;;;;;;;;;5112724;28;20043;-80
2023/07/14 01:56:43;;;;;;;6.70;6.30;;;;;;;;;;5112034;28;20529;-80
2023/07/14 01:59:16;;;;;;;8.32;7.72;;;;;;;;;;5112286;28;20047;-80
2023/07/14 02:01:44;;;;;;;7.43;6.80;;;;;;;;;;5113359;28;20086;-80
2023/07/14 02:04:14;;;;;;;7.80;7.15;;;;;;;;;;5112376;28;20043;-80
2023/07/14 02:06:40;;;;;;;7.35;6.72;;;;;;;;;;5114017;28;20047;-80
2023/07/14 02:09:08;;;;;;;7.28;6.68;;;;;;;;;;5112153;28;20139;-80
2023/07/14 02:11:34;;;;;;;7.65;6.97;;;;;;;;;;5094940;28;20078;-80
2023/07/14 02:14:01;;;;;;;7.60;7.00;;;;;;;;;;5111910;28;20051;-81
2023/07/14 02:16:27;;;;;;;8.00;7.35;;;;;;;;;;5112076;28;20047;-80
2023/07/14 02:18:54;;;;;;;6.95;6.35;;;;;;;;;;5110960;28;20071;-80
2023/07/14 02:21:24;;;;;;;7.95;7.18;;;;;;;;;;5112945;28;20052;-80
2023/07/14 02:23:50;;;;;;;7.90;7.20;;;;;;;;;;5112050;28;20507;-80
2023/07/14 02:26:22;;;;;;;8.35;7.38;;;;;;;;;;5112772;28;20505;-81
2023/07/14 02:28:48;;;;;;;7.68;7.07;;;;;;;;;;5113102;28;20502;-81
2023/07/14 02:31:41;;;;;;;7.90;7.30;;;;;;;;;;5116258;28;20047;-80
2023/07/14 02:34:10;;;;;;;7.13;6.63;;;;;;;;;;5111188;28;20146;-81
2023/07/14 02:36:43;;;;;;;8.05;7.25;;;;;;;;;;5116747;28;20489;-80
2023/07/14 02:39:09;;;;;;;8.13;7.47;;;;;;;;;;5116018;28;20051;-80
2023/07/14 02:41:40;;;;;;;7.68;7.13;;;;;;;;;;5115574;28;20035;-81
2023/07/14 02:44:08;;;;;;;8.48;7.78;;;;;;;;;;5116588;28;20047;-81
2023/07/14 02:46:37;;;;;;;8.65;7.85;;;;;;;;;;5098669;28;20057;-81
2023/07/14 02:49:04;;;;;;;9.65;8.20;;;;;;;;;;5098486;28;20048;-81
2023/07/14 02:51:30;;;;;;;9.20;8.48;;;;;;;;;;5115024;28;20082;-81
2023/07/14 02:53:56;;;;;;;8.50;7.68;;;;;;;;;;5115981;28;20477;-81
2023/07/14 02:56:22;;;;;;;7.57;7.00;;;;;;;;;;5115011;28;20043;-80
2023/07/14 02:58:49;;;;;;;9.02;8.23;;;;;;;;;;5115708;28;20126;-81
2023/07/14 03:01:16;;;;;;;7.65;7.10;;;;;;;;;;5098114;28;20057;-81
2023/07/14 03:03:44;;;;;;;8.15;7.57;;;;;;;;;;5115745;28;20036;-81
2023/07/14 03:06:12;;;;;;;9.05;8.23;;;;;;;;;;5115087;28;20086;-81
2023/07/14 03:08:38;;;;;;;9.25;8.43;;;;;;;;;;5115206;28;20044;-81
2023/07/14 03:11:04;;;;;;;9.80;8.95;;;;;;;;;;5114894;28;20485;-81
2023/07/14 03:13:30;;;;;;;9.35;8.55;;;;;;;;;;5098328;28;20496;-81
2023/07/14 03:15:57;;;;;;;8.32;7.13;;;;;;;;;;5098268;28;20055;-81
2023/07/14 03:18:23;;;;;;;9.35;8.55;;;;;;;;;;5115030;28;20044;-81
2023/07/14 03:20:55;;;;;;;8.38;7.80;;;;;;;;;;5098180;28;20518;-81
2023/07/14 03:23:21;;;;;;;8.13;7.43;;;;;;;;;;5115865;28;20448;-80
2023/07/14 03:25:52;;;;;;;8.40;7.60;;;;;;;;;;5115635;28;20511;-81
2023/07/14 03:28:18;;;;;;;8.68;7.90;;;;;;;;;;5115680;28;20043;-81
2023/07/14 03:30:44;;;;;;;8.68;7.82;;;;;;;;;;5114465;28;20059;-80
2023/07/14 03:33:10;;;;;;;11.15;9.40;;;;;;;;;;5114557;28;20039;-81
2023/07/14 03:35:36;;;;;;;8.77;7.95;;;;;;;;;;5114606;28;20139;-81
2023/07/14 03:38:03;;;;;;;10.52;9.38;;;;;;;;;;5115517;28;20051;-80
2023/07/14 03:40:29;;;;;;;9.68;8.82;;;;;;;;;;5113686;28;20066;-81
2023/07/14 03:42:55;;;;;;;10.38;9.57;;;;;;;;;;5114391;28;20079;-80
2023/07/14 03:45:22;;;;;;;10.95;10.05;;;;;;;;;;5080465;28;20493;-80
2023/07/14 03:47:49;;;;;;;10.63;9.82;;;;;;;;;;5115289;28;20481;-81
2023/07/14 03:50:15;;;;;;;10.52;9.60;;;;;;;;;;5097560;28;20511;-80
2023/07/14 03:52:42;;;;;;;10.63;9.80;;;;;;;;;;5114149;28;20058;-80
2023/07/14 03:55:09;;;;;;;12.10;11.05;;;;;;;;;;5113776;28;20109;-80
2023/07/14 03:57:35;;;;;;;11.35;10.25;;;;;;;;;;5096831;28;20100;-80
2023/07/14 04:00:14;;;;;;;12.95;11.68;;;;;;;;;;5113158;28;20497;-81
2023/07/14 04:02:41;;;;;;;12.82;11.52;;;;;;;;;;5114175;28;20047;-80
2023/07/14 04:05:07;;;;;;;12.93;11.63;;;;;;;;;;5114022;28;20054;-81
2023/07/14 04:07:35;;;;;;;12.88;11.93;;;;;;;;;;5113834;28;20489;-81
2023/07/14 04:10:02;;;;;;;15.10;13.60;;;;;;;;;;5113915;28;20067;-80
2023/07/14 04:12:28;;;;;;;14.55;13.07;;;;;;;;;;5113908;28;20098;-81
2023/07/14 04:14:54;;;;;;;16.13;14.65;;;;;;;;;;5114854;28;20049;-80
2023/07/14 04:17:22;;;;;;;15.23;13.73;;;;;;;;;;5113612;28;20048;-81
2023/07/14 04:19:48;;;;;;;15.68;14.07;;;;;;;;;;5114541;28;20554;-81
2023/07/14 04:22:15;;;;;;;16.58;15.07;;;;;;;;;;5114099;28;20043;-81
2023/07/14 04:24:41;;;;;;;17.95;16.10;;;;;;;;;;5114705;28;20083;-81
2023/07/14 04:27:07;;;;;;;18.30;16.60;;;;;;;;;;5113312;28;20051;-81
2023/07/14 04:29:33;;;;;;;15.15;13.85;;;;;;;;;;5114077;28;20048;-81
2023/07/14 04:31:59;;;;;;;17.73;16.10;;;;;;;;;;5113364;28;20039;-81
2023/07/14 04:34:30;;;;;;;16.35;15.15;;;;;;;;;;5113222;28;20040;-81
2023/07/14 04:36:56;;;;;;;17.30;15.80;;;;;;;;;;5114382;28;20074;-80
2023/07/14 04:39:25;;;;;;;17.40;15.90;;;;;;;;;;5114413;28;20405;-80
2023/07/14 04:41:54;;;;;;;17.10;15.50;;;;;;;;;;5113179;28;20050;-80
2023/07/14 04:44:20;;;;;;;15.02;13.70;;;;;;;;;;5114553;28;20055;-81
2023/07/14 04:46:48;;;;;;;16.55;14.93;;;;;;;;;;5113290;28;20097;-81
2023/07/14 04:49:17;;;;;;;16.17;14.57;;;;;;;;;;5096266;28;20048;-80
2023/07/14 04:51:44;;;;;;;15.80;14.43;;;;;;;;;;5112612;28;20044;-80
2023/07/14 04:54:10;;;;;;;15.40;14.00;;;;;;;;;;5113040;28;20051;-81
2023/07/14 04:56:37;;;;;;;16.25;14.90;;;;;;;;;;5113001;28;20053;-81
2023/07/14 04:59:05;;;;;;;15.20;13.93;;;;;;;;;;5112465;28;20054;-81
2023/07/14 05:01:31;;;;;;;15.70;14.40;;;;;;;;;;5112823;28;20043;-81
2023/07/14 05:03:58;;;;;;;15.77;14.52;;;;;;;;;;5113015;28;20140;-81
2023/07/14 05:06:24;;;;;;;16.65;14.95;;;;;;;;;;5096111;28;20079;-81
2023/07/14 05:08:50;;;;;;;16.48;14.93;;;;;;;;;;5112823;28;20058;-81
2023/07/14 05:11:16;;;;;;;15.95;14.57;;;;;;;;;;5112502;28;20051;-80
2023/07/14 05:13:42;;;;;;;15.00;13.85;;;;;;;;;;5113916;28;20044;-81
2023/07/14 05:16:08;;;;;;;17.42;15.85;;;;;;;;;;5112908;28;20054;-80
2023/07/14 05:18:35;;;;;;;15.88;14.50;;;;;;;;;;5112987;28;20059;-80
2023/07/14 05:21:03;;;;;;;17.17;15.73;;;;;;;;;;5114011;28;20039;-80
2023/07/14 05:23:29;;;;;;;15.80;14.27;;;;;;;;;;5112593;28;20044;-80
2023/07/14 05:25:56;;;;;;;14.68;13.48;;;;;;;;;;5095919;28;20065;-80
2023/07/14 05:28:22;;;;;;;16.27;14.98;;;;;;;;;;5112437;28;20040;-81
2023/07/14 05:30:48;;;;;;;16.08;14.68;;;;;;;;;;5112703;28;20051;-80
2023/07/14 05:33:16;;;;;;;16.35;14.75;;;;;;;;;;5112263;28;20464;-81
2023/07/14 05:35:42;;;;;;;16.08;14.50;;;;;;;;;;5095667;28;20051;-81
2023/07/14 05:38:09;;;;;;;16.42;15.00;;;;;;;;;;5112628;28;20100;-80
2023/07/14 05:40:35;;;;;;;15.00;13.63;;;;;;;;;;5112448;28;20075;-80
2023/07/14 05:43:01;;;;;;;15.65;14.32;;;;;;;;;;5112455;28;20079;-80
2023/07/14 05:45:27;;;;;;;14.77;13.43;;;;;;;;;;5112679;28;20088;-80
2023/07/14 05:47:53;;;;;;;14.30;13.07;;;;;;;;;;5113538;28;20079;-80
2023/07/14 05:50:19;;;;;;;14.45;13.23;;;;;;;;;;5079622;28;20051;-80
2023/07/14 05:52:46;;;;;;;15.43;14.02;;;;;;;;;;5094710;28;20564;-80
2023/07/14 05:55:13;;;;;;;14.65;13.25;;;;;;;;;;5112492;28;20090;-80
2023/07/14 05:57:39;;;;;;;14.07;12.80;;;;;;;;;;5113193;28;20510;-80
2023/07/14 06:00:11;;;;;;;13.68;12.32;;;;;;;;;;5111924;28;20052;-81
2023/07/14 06:02:37;;;;;;;13.98;12.73;;;;;;;;;;5095495;28;20040;-80
2023/07/14 06:05:03;;;;;;;12.65;11.55;;;;;;;;;;5116159;28;20047;-80
2023/07/14 06:07:31;;;;;;;12.55;11.35;;;;;;;;;;5116373;28;20040;-80
2023/07/14 06:09:57;;;;;;;11.95;10.85;;;;;;;;;;5116022;28;20134;-80
2023/07/14 06:12:23;;;;;;;12.38;11.40;;;;;;;;;;5115496;28;20051;-80
2023/07/14 06:14:49;;;;;;;12.77;11.63;;;;;;;;;;5099398;28;20040;-80
2023/07/14 06:17:15;;;;;;;11.77;10.85;;;;;;;;;;5117201;28;20050;-80
2023/07/14 06:19:42;;;;;;;11.30;10.40;;;;;;;;;;5073193;28;20059;-80
2023/07/14 06:22:08;;;;;;;10.98;9.93;;;;;;;;;;5095553;28;20393;-80
2023/07/14 06:24:37;;;;;;;10.27;9.40;;;;;;;;;;5096618;28;20104;-80
2023/07/14 06:27:05;;;;;;;10.60;9.57;;;;;;;;;;5078637;28;20048;-80
2023/07/14 06:29:31;;;;;;;10.32;9.43;;;;;;;;;;5094821;28;20055;-80
2023/07/14 06:31:58;;;;;;;10.73;9.82;;;;;;;;;;5095487;28;20048;-80
2023/07/14 06:34:25;;;;;;;10.68;9.77;;;;;;;;;;5078830;28;20112;-80
2023/07/14 06:36:51;;;;;;;9.55;8.85;;;;;;;;;;5095284;28;20393;-81
2023/07/14 06:39:17;;;;;;;9.55;8.95;;;;;;;;;;5095421;28;20078;-80
2023/07/14 06:41:44;;;;;;;10.13;9.23;;;;;;;;;;5094905;28;20058;-80
2023/07/14 06:44:10;;;;;;;10.05;9.15;;;;;;;;;;5095024;28;20120;-80
2023/07/14 06:46:36;;;;;;;10.10;9.15;;;;;;;;;;5095101;28;20047;-80
2023/07/14 06:49:03;;;;;;;9.48;8.57;;;;;;;;;;5095219;28;20051;-79
2023/07/14 06:51:29;;;;;;;9.77;8.85;;;;;;;;;;5095431;28;20131;-80
2023/07/14 06:53:55;;;;;;;8.27;7.47;;;;;;;;;;5078332;28;20048;-80
2023/07/14 06:56:22;;;;;;;8.43;7.50;;;;;;;;;;5095762;28;20043;-80
2023/07/14 06:58:48;;;;;;;8.57;7.88;;;;;;;;;;5061237;28;20059;-80
2023/07/14 07:01:15;;;;;;;8.13;7.32;;;;;;;;;;5078241;28;20051;-80
2023/07/14 07:03:42;;;;;;;8.10;7.38;;;;;;;;;;5095872;28;20044;-80
2023/07/14 07:06:08;;;;;;;7.93;7.22;;;;;;;;;;5062398;28;20112;-80
2023/07/14 07:08:34;;;;;;;8.07;7.28;;;;;;;;;;5094827;28;20055;-81
2023/07/14 07:11:00;;;;;;;8.38;7.68;;;;;;;;;;5094530;28;20063;-80
2023/07/14 07:13:27;;;;;;;7.32;6.82;;;;;;;;;;5094504;28;20059;-80
2023/07/14 07:15:53;;;;;;;7.85;7.05;;;;;;;;;;5093663;28;20055;-81
2023/07/14 07:18:20;;;;;;;6.80;6.20;;;;;;;;;;5094387;28;20113;-81
2023/07/14 07:20:46;;;;;;;7.63;6.93;;;;;;;;;;5094553;28;20041;-81
2023/07/14 07:23:12;;;;;;;6.93;5.63;;;;;;;;;;5078222;28;20048;-82
2023/07/14 07:25:38;;;;;;;7.53;6.72;;;;;;;;;;5094461;28;20054;-81
2023/07/14 07:28:04;;;;;;;8.57;6.20;;;;;;;;;;5076854;28;20505;-82
2023/07/14 07:30:34;;;;;;;6.47;5.88;;;;;;;;;;5095303;28;20089;-81
2023/07/14 07:33:00;;;;;;;5.95;5.45;;;;;;;;;;5094467;28;20055;-81
2023/07/14 07:35:27;;;;;;;6.75;6.05;;;;;;;;;;5094379;28;20196;-81
2023/07/14 07:37:53;;;;;;;6.68;6.15;;;;;;;;;;5094169;28;20052;-82
2023/07/14 07:40:20;;;;;;;7.82;5.45;;;;;;;;;;5094781;28;20402;-82
2023/07/14 07:42:46;;;;;;;6.43;5.82;;;;;;;;;;5093782;28;20040;-81
2023/07/14 07:45:12;;;;;;;5.30;4.78;;;;;;;;;;5077425;28;20044;-81
2023/07/14 07:47:38;;;;;;;9.10;6.20;;;;;;;;;;5095447;28;20048;-81
2023/07/14 07:50:04;;;;;;;4.18;3.83;;;;;;;;;;5060387;28;20044;-81
2023/07/14 07:52:33;;;;;;;4.63;4.20;;;;;;;;;;5094446;28;20048;-81
2023/07/14 07:54:59;;;;;;;4.85;4.22;;;;;;;;;;5093985;28;20122;-81
2023/07/14 07:57:25;;;;;;;4.78;3.92;;;;;;;;;;5093998;28;20044;-81
2023/07/14 07:59:51;;;;;;;4.97;4.47;;;;;;;;;;5093226;28;20044;-80
2023/07/14 08:02:17;;;;;;;6.00;4.78;;;;;;;;;;5094685;28;20070;-81
2023/07/14 08:04:43;;;;;;;6.13;4.10;;;;;;;;;;5094625;28;20374;-81
2023/07/14 08:07:13;;;;;;;4.32;3.70;;;;;;;;;;5094442;28;20047;-81
2023/07/14 08:09:39;;;;;;;5.75;3.15;;;;;;;;;;5076771;28;20093;-81
2023/07/14 08:12:06;;;;;;;3.88;3.38;;;;;;;;;;5093168;28;20051;-81
2023/07/14 08:14:32;;;;;;;5.03;2.33;;;;;;;;;;5094203;28;20048;-81
2023/07/14 08:16:59;;;;;;;3.10;2.13;;;;;;;;;;5093605;28;20089;-82
2023/07/14 08:19:25;;;;;;;2.30;1.65;;;;;;;;;;5093628;28;20040;-81
2023/07/14 08:21:51;;;;;;;4.03;1.80;;;;;;;;;;5094423;28;20048;-80
2023/07/14 08:24:17;;;;;;;4.00;2.10;;;;;;;;;;5094427;28;20066;-81
2023/07/14 08:26:43;;;;;;;2.35;1.70;;;;;;;;;;5093263;28;20052;-82
2023/07/14 08:29:09;;;;;;;2.63;2.03;;;;;;;;;;5076055;28;20044;-82
2023/07/14 08:31:35;;;;;;;2.33;1.23;;;;;;;;;;5093230;28;20044;-81
2023/07/14 08:34:01;;;;;;;2.80;1.40;;;;;;;;;;5076331;28;20131;-81
2023/07/14 08:36:28;;;;;;;1.65;1.08;;;;;;;;;;5093389;28;20044;-81
2023/07/14 08:38:54;;;;;;;5.40;1.25;;;;;;;;;;5093265;28;20054;-81
2023/07/14 08:41:20;;;;;;;2.60;1.42;;;;;;;;;;5093051;28;20058;-80
2023/07/14 08:43:59;;;;;;;1.98;1.00;;;;;;;;;;5092809;28;20493;-81
2023/07/14 08:46:32;;;;;;;1.73;1.40;;;;;;;;;;5094143;28;20087;-79
2023/07/14 08:49:01;;;;;;;2.60;0.80;;;;;;;;;;5093164;28;20056;-82
2023/07/14 08:51:36;;;;;;;2.65;0.70;;;;;;;;;;5093014;28;20051;-81
2023/07/14 08:54:05;;;;;;;2.25;0.85;;;;;;;;;;5093998;28;20055;-81
2023/07/14 08:56:34;;;;;;;2.90;1.15;;;;;;;;;;5092700;28;20048;-81
2023/07/14 08:59:00;;;;;;;1.27;0.80;;;;;;;;;;5092537;28;20474;-82
2023/07/14 09:01:38;;;;;;;3.53;0.60;;;;;;;;;;5093096;28;20059;-82
2023/07/14 09:04:24;;;;;;;1.50;0.75;;;;;;;;;;5093718;28;20040;-77
2023/07/14 09:06:51;;;;;;;1.02;0.85;;;;;;;;;;5075799;28;20082;-75
2023/07/14 09:09:18;;;;;;;2.90;0.90;;;;;;;;;;5093698;28;20135;-75
2023/07/14 09:12:03;;;;;;;3.15;1.10;;;;;;;;;;5093187;28;20056;-75
2023/07/14 09:14:31;;;;;;;;;;;;;;;;;;5094050;28;20044;-75
2023/07/14 09:17:04;;;;;;;1.42;0.75;;;;;;;;;;5092388;28;19924;-75
2023/07/14 09:19:42;;;;;;;1.48;0.80;;;;;;;;;;5093664;28;20052;-76
2023/07/14 09:22:17;;;;;;;3.60;0.80;;;;;;;;;;5093692;28;20067;-74
2023/07/14 09:24:43;;;;;;;;;;;;;;;;;;5093195;28;20413;-75
2023/07/14 09:27:29;;;;;;;2.28;0.90;;;;;;;;;;5093703;28;19973;-75
2023/07/14 09:29:56;;;;;;;2.40;0.60;;;;;;;;;;5091768;28;20066;-75
2023/07/14 09:32:25;;;;;;;2.05;0.68;;;;;;;;;;5092920;28;20149;-75
2023/07/14 09:35:04;;;;;;;2.08;0.70;;;;;;;;;;5092368;28;20051;-74
2023/07/14 09:37:37;;;;;;;2.15;0.77;;;;;;;;;;5093374;28;20408;-74
2023/07/14 09:40:15;;;;;;;1.25;0.60;;;;;;;;;;5096881;28;20481;-74
2023/07/14 09:42:41;;;;;;;0.75;0.60;;;;;;;;;;5097391;28;20127;-79
2023/07/14 09:45:15;;;;;;;2.55;0.80;;;;;;;;;;5079620;28;20059;-74
2023/07/14 09:47:42;;;;;;;1.65;0.85;;;;;;;;;;5096974;28;20098;-75
2023/07/14 09:50:14;;;;;;;4.85;1.15;;;;;;;;;;5096124;28;20084;-74
2023/07/14 09:52:54;;;;;;;4.35;0.75;;;;;;;;;;5096330;28;20396;-74
2023/07/14 09:55:20;;;;;;;1.10;0.65;;;;;;;;;;5096930;28;20519;-74
2023/07/14 09:57:47;;;;;;;3.65;0.65;;;;;;;;;;5096232;28;20048;-74
2023/07/14 10:00:36;;;;;;;2.72;0.75;;;;;;;;;;5096739;28;20048;-74
2023/07/14 10:03:07;;;;;;;1.27;0.65;;;;;;;;;;5095295;28;20048;-74
2023/07/14 10:05:52;;;;;;;2.85;0.75;;;;;;;;;;5097527;28;20428;-74
2023/07/14 10:08:35;;;;;;;2.63;0.77;;;;;;;;;;5097030;28;20128;-82
2023/07/14 10:11:18;;;;;;;3.85;0.73;;;;;;;;;;5095687;28;20056;-81
2023/07/14 10:13:46;;;;;;;1.73;0.82;;;;;;;;;;5078962;28;20086;-81
2023/07/14 10:16:16;;;;;;;1.40;1.10;;;;;;;;;;5095070;28;20048;-81
2023/07/14 10:18:51;;;;;;;1.30;0.85;;;;;;;;;;5095798;28;20188;-81
2023/07/14 10:21:22;;;;;;;1.45;0.95;;;;;;;;;;5095844;28;20044;-81
2023/07/14 10:24:05;;;;;;;2.75;0.88;;;;;;;;;;5095410;28;20048;-81
2023/07/14 10:26:35;;;;;;;1.55;0.95;;;;;;;;;;5078987;28;20051;-81
2023/07/14 10:29:06;;;;;;;2.22;1.00;;;;;;;;;;5094828;28;20526;-82
2023/07/14 10:31:35;;;;;;;2.10;0.93;;;;;;;;;;5095020;28;20048;-81
2023/07/14 10:34:01;;;;;;;1.77;0.80;;;;;;;;;;5095413;28;20078;-83
2023/07/14 10:36:35;;;;;;;1.23;0.60;;;;;;;;;;5095442;28;20047;-82
2023/07/14 10:39:12;;;;;;;2.25;1.00;;;;;;;;;;5095657;28;20044;-85
2023/07/14 10:41:40;;;;;;;2.72;1.08;;;;;;;;;;5078696;28;20193;-82
2023/07/14 10:44:14;;;;;;;3.08;1.00;;;;;;;;;;5096565;28;20048;-83
2023/07/14 10:46:40;;;;;;;;;;;;;;;;;;5095742;28;20059;-83
2023/07/14 10:49:16;;;;;;;1.85;0.50;;;;;;;;;;5097419;28;20014;-82
2023/07/14 10:51:47;;;;;;;1.63;0.60;;;;;;;;;;5095180;28;20383;-82
2023/07/14 10:54:16;;;;;;;1.92;0.60;;;;;;;;;;5096248;28;20067;-84
2023/07/14 10:56:46;;;;;;;1.20;0.65;;;;;;;;;;5095370;28;20117;-83
2023/07/14 10:59:22;;;;;;;1.48;0.50;;;;;;;;;;5094523;28;20044;-83
2023/07/14 11:01:56;;;;;;;1.08;0.60;;;;;;;;;;5078351;28;20094;-82
2023/07/14 11:04:22;;;;;;;;;;;;;;;;;;5095276;28;20108;-83
2023/07/14 11:06:51;;;;;;;2.38;0.73;;;;;;;;;;5078172;28;20015;-82
2023/07/14 11:09:17;;;;;;;2.22;0.68;;;;;;;;;;5095835;28;20052;-82
2023/07/14 11:11:48;;;;;;;4.72;1.05;;;;;;;;;;5094209;28;20081;-84
2023/07/14 11:14:17;;;;;;;1.67;0.70;;;;;;;;;;5095397;28;20044;-84
2023/07/14 11:17:13;;;;;;;1.65;0.68;;;;;;;;;;5094578;28;20036;-83
2023/07/14 11:19:45;;;;;;;1.88;0.65;;;;;;;;;;5081588;28;20186;-84
2023/07/14 11:22:20;;;;;;;1.75;0.82;;;;;;;;;;5077665;28;20109;-81
2023/07/14 11:24:57;;;;;;;2.15;0.55;;;;;;;;;;5094660;28;20052;-81
2023/07/14 11:27:42;;;;;;;2.03;0.68;;;;;;;;;;5076809;28;20485;-82
2023/07/14 11:30:12;;;;;;;2.70;0.57;;;;;;;;;;5093962;28;20052;-82
2023/07/14 11:32:47;;;;;;;2.40;0.80;;;;;;;;;;5094529;28;20493;-82
2023/07/14 11:35:19;;;;;;;2.50;0.82;;;;;;;;;;5077728;28;20090;-82
2023/07/14 11:38:04;;;;;;;3.30;0.80;;;;;;;;;;5095274;28;20044;-83
2023/07/14 11:40:34;;;;;;;1.33;0.85;;;;;;;;;;5095377;28;20136;-85
2023/07/14 11:43:01;;;;;;;1.90;0.57;;;;;;;;;;5077499;28;20044;-85
2023/07/14 11:45:29;;;;;;;1.63;0.85;;;;;;;;;;5094240;28;20091;-85
2023/07/14 11:47:56;;;;;;;2.42;0.80;;;;;;;;;;5077354;28;20087;-82
2023/07/14 11:50:25;;;;;;;2.45;0.68;;;;;;;;;;5094253;28;20374;-82
2023/07/14 11:52:57;;;;;;;2.10;0.60;;;;;;;;;;5077100;28;20051;-82
2023/07/14 11:55:24;;;;;;;3.30;0.60;;;;;;;;;;5094089;28;20052;-82
2023/07/14 11:57:52;;;;;;;1.38;0.50;;;;;;;;;;5093917;28;20040;-82
2023/07/14 12:00:26;;;;;;;2.15;0.50;;;;;;;;;;5092968;28;20055;-83
2023/07/14 12:02:52;;;;;;;;;;;;;;;;;;5092933;28;20044;-82
2023/07/14 12:05:18;;;;;;;2.45;0.70;;;;;;;;;;5092864;28;20335;-82
2023/07/14 12:08:05;;;;;;;0.80;0.50;;;;;;;;;;5093632;28;20398;-82
2023/07/14 12:10:41;;;;;;;2.30;0.65;;;;;;;;;;5076738;28;20106;-82
2023/07/14 12:13:16;;;;;;;1.25;0.60;;;;;;;;;;5093863;28;20048;-82
2023/07/14 12:15:47;;;;;;;1.63;0.45;;;;;;;;;;5093961;28;20123;-81
2023/07/14 12:18:22;;;;;;;1.73;0.65;;;;;;;;;;5094684;28;20052;-81
2023/07/14 12:20:49;;;;;;;1.92;0.40;;;;;;;;;;5093404;28;20059;-81
2023/07/14 12:23:16;;;;;;;1.33;0.70;;;;;;;;;;5093498;28;20036;-81
2023/07/14 12:25:44;;;;;;;1.42;0.40;;;;;;;;;;5094475;28;20052;-81
2023/07/14 12:28:16;;;;;;;2.08;0.50;;;;;;;;;;5094423;28;20040;-81
2023/07/14 12:30:46;;;;;;;2.25;0.50;;;;;;;;;;5092989;28;20059;-79
2023/07/14 12:33:13;;;;;;;1.10;0.50;;;;;;;;;;5092732;28;20508;-81
2023/07/14 12:35:39;;;;;;;0.77;0.35;;;;;;;;;;5093249;28;20070;-81
2023/07/14 12:38:09;;;;;;;1.20;0.40;;;;;;;;;;5075981;28;20047;-82
2023/07/14 12:40:36;;;;;;;0.70;0.40;;;;;;;;;;5094436;28;20055;-82
2023/07/14 12:43:04;;;;;;;1.50;0.60;;;;;;;;;;5094159;28;20048;-81
2023/07/14 12:45:31;;;;;;;1.02;0.40;;;;;;;;;;5093098;28;20486;-81
2023/07/14 12:48:00;;;;;;;3.05;0.82;;;;;;;;;;5092733;28;20451;-82
2023/07/14 12:50:27;;;;;;;0.75;0.40;;;;;;;;;;5092820;28;20052;-81
2023/07/14 12:52:53;;;;;;;1.00;0.50;;;;;;;;;;5092785;28;20052;-81
2023/07/14 12:55:21;;;;;;;3.13;0.65;;;;;;;;;;5093982;28;20048;-81
2023/07/14 12:57:48;;;;;;;2.28;0.70;;;;;;;;;;5092993;28;20098;-82
2023/07/14 13:00:17;;;;;;;1.95;0.50;;;;;;;;;;5092188;28;20405;-81
2023/07/14 13:02:44;;;;;;;1.75;0.50;;;;;;;;;;5092581;28;20043;-81
2023/07/14 13:05:14;;;;;;;1.60;0.70;;;;;;;;;;5076034;28;20469;-81
2023/07/14 13:07:42;;;;;;;1.15;0.75;;;;;;;;;;5092585;28;20516;-82
2023/07/14 13:10:16;;;;;;;1.55;0.80;;;;;;;;;;5093761;28;20051;-82
2023/07/14 13:12:43;;;;;;;2.55;0.95;;;;;;;;;;5091986;28;20084;-82
2023/07/14 13:15:16;;;;;;;1.27;0.60;;;;;;;;;;5075710;28;20105;-82
2023/07/14 13:17:43;;;;;;;1.67;0.85;;;;;;;;;;5092715;28;20036;-82
2023/07/14 13:20:29;;;;;;;2.50;0.60;;;;;;;;;;5092263;28;20127;-83
2023/07/14 13:23:06;;;;;;;1.88;0.60;;;;;;;;;;5092265;28;20044;-82
2023/07/14 13:25:33;;;;;;;1.63;0.70;;;;;;;;;;5092472;28;20101;-81
2023/07/14 13:27:59;;;;;;;2.85;1.08;;;;;;;;;;5092347;28;20392;-82
2023/07/14 13:30:32;;;;;;;2.05;0.70;;;;;;;;;;5092116;28;20109;-82
2023/07/14 13:32:59;;;;;;;1.13;0.63;;;;;;;;;;5092382;28;20055;-81
2023/07/14 13:35:26;;;;;;;1.38;0.70;;;;;;;;;;5092468;28;20290;-82
2023/07/14 13:37:57;;;;;;;2.65;0.70;;;;;;;;;;5075757;28;20054;-82
2023/07/14 13:40:26;;;;;;;2.85;0.80;;;;;;;;;;5092746;28;20134;-82
2023/07/14 13:42:58;;;;;;;2.08;1.02;;;;;;;;;;5092225;28;20044;-82
2023/07/14 13:45:31;;;;;;;1.00;0.85;;;;;;;;;;5092219;28;20127;-82
2023/07/14 13:47:57;;;;;;;2.35;0.80;;;;;;;;;;5092141;28;20491;-82
2023/07/14 13:50:23;;;;;;;1.27;0.55;;;;;;;;;;5091562;28;20090;-82
2023/07/14 13:52:49;;;;;;;2.55;0.70;;;;;;;;;;5075381;28;20059;-82
2023/07/14 13:55:18;;;;;;;1.25;0.60;;;;;;;;;;5092246;28;20040;-81
2023/07/14 13:57:44;;;;;;;2.88;0.65;;;;;;;;;;5075390;28;20056;-81
2023/07/14 14:00:14;;;;;;;1.05;0.60;;;;;;;;;;5091868;28;20546;-82
2023/07/14 14:02:42;;;;;;;0.88;0.50;;;;;;;;;;5092130;28;20080;-81
2023/07/14 14:05:19;;;;;;;1.27;0.43;;;;;;;;;;5093128;28;20051;-81
2023/07/14 14:07:46;;;;;;;2.72;0.50;;;;;;;;;;5092233;28;20071;-81
2023/07/14 14:10:13;;;;;;;1.20;0.55;;;;;;;;;;5092108;28;20139;-82
2023/07/14 14:12:40;;;;;;;1.13;0.40;;;;;;;;;;5091857;28;20519;-81
2023/07/14 14:15:07;;;;;;;1.50;0.90;;;;;;;;;;5091999;28;20135;-82
2023/07/14 14:17:35;;;;;;;3.28;0.70;;;;;;;;;;5092903;28;20489;-81
2023/07/14 14:20:02;;;;;;;2.13;0.50;;;;;;;;;;5091401;28;20044;-81
2023/07/14 14:22:28;;;;;;;1.80;0.55;;;;;;;;;;5074523;28;20508;-82
2023/07/14 14:24:55;;;;;;;0.98;0.52;;;;;;;;;;5093323;28;20044;-82
2023/07/14 14:27:21;;;;;;;1.25;0.50;;;;;;;;;;5095790;28;20059;-81
2023/07/14 14:29:47;;;;;;;1.95;0.70;;;;;;;;;;5095233;28;20043;-82
2023/07/14 14:32:15;;;;;;;1.27;0.70;;;;;;;;;;5095576;28;20222;-81
2023/07/14 14:34:42;;;;;;;1.98;0.45;;;;;;;;;;5093093;28;20062;-84
2023/07/14 14:37:11;;;;;;;0.70;0.40;;;;;;;;;;5110446;28;20119;-83
2023/07/14 14:39:38;;;;;;;2.75;0.60;;;;;;;;;;5096843;28;20048;-82
2023/07/14 14:42:04;;;;;;;0.70;0.60;;;;;;;;;;5111265;28;20039;-83
2023/07/14 14:44:30;;;;;;;1.00;0.50;;;;;;;;;;5113983;28;20134;-80
2023/07/14 14:46:58;;;;;;;3.25;0.70;;;;;;;;;;5114945;28;20550;-80
2023/07/14 14:49:24;;;;;;;1.10;0.70;;;;;;;;;;5115362;28;20047;-80